Time;durP1;ratioP1;P1;durP2;ratioP2;P2;SDS_P1;SDS_P2;PMS_P1;PMS_P2;Temp;Humidity;BMP_temperature;BMP_pressure;BME280_temperature;BME280_humidity;BME280_pressure;Samples;Min_cycle;Max_cycle;Signal;HPM_P1;HPM_P2
2021/12/23 00:01:54;;;;;;;21.23;13.20;;;;;;;-1.09;92.28;101750.97;5021366;28;20270;-55
2021/12/23 00:04:21;;;;;;;17.10;12.77;;;;;;;-0.96;91.02;101752.59;5020606;28;20704;-55
2021/12/23 00:06:48;;;;;;;17.63;12.77;;;;;;;-0.97;90.35;101745.66;5020363;28;20661;-56
2021/12/23 00:09:15;;;;;;;17.63;11.30;;;;;;;-1.05;90.87;101741.72;5017640;28;20341;-56
2021/12/23 00:11:41;;;;;;;18.43;13.27;;;;;;;-1.08;92.03;101737.25;5020136;28;20261;-56
2021/12/23 00:14:09;;;;;;;20.67;14.57;;;;;;;-1.25;91.84;101735.31;5018492;28;20296;-55
2021/12/23 00:16:43;;;;;;;17.67;13.87;;;;;;;-1.11;93.35;101731.91;5021140;28;20734;-56
2021/12/23 00:19:20;;;;;;;21.83;14.63;;;;;;;-1.06;92.60;101730.50;5020489;28;20581;-55
2021/12/23 00:24:32;;;;;;;23.07;16.10;;;;;;;-1.15;91.83;101723.91;5019039;28;20259;-53
2021/12/23 00:26:58;;;;;;;22.50;15.07;;;;;;;-1.26;91.21;101721.56;5020273;28;20734;-56
2021/12/23 00:29:24;;;;;;;21.20;15.33;;;;;;;-1.29;92.21;101721.34;5018751;28;20673;-56
2021/12/23 00:31:51;;;;;;;22.07;14.07;;;;;;;-1.38;92.30;101720.78;5022252;28;20255;-57
2021/12/23 00:34:18;;;;;;;23.63;14.73;;;;;;;-1.65;93.22;101719.03;5023974;28;20262;-56
2021/12/23 00:36:46;;;;;;;18.73;13.57;;;;;;;-1.56;93.02;101722.19;5022924;28;20281;-56
2021/12/23 00:39:13;;;;;;;24.33;15.43;;;;;;;-1.57;93.35;101720.41;5022978;28;20245;-56
2021/12/23 00:41:42;;;;;;;23.13;15.00;;;;;;;-1.59;93.49;101720.31;5023601;28;20242;-56
2021/12/23 00:44:09;;;;;;;21.47;14.63;;;;;;;-1.66;93.28;101714.66;5022952;28;20255;-54
2021/12/23 00:46:35;;;;;;;20.73;15.40;;;;;;;-1.60;92.98;101707.34;5021032;28;20332;-56
2021/12/23 00:49:02;;;;;;;23.97;14.63;;;;;;;-1.65;93.45;101708.72;5024307;28;20370;-56
2021/12/23 00:51:29;;;;;;;21.83;14.77;;;;;;;-1.70;93.48;101701.59;5024698;28;20708;-56
2021/12/23 00:56:25;;;;;;;18.03;14.03;;;;;;;-1.53;93.24;101699.22;5041549;28;20234;-53
2021/12/23 00:58:52;;;;;;;19.20;15.03;;;;;;;-1.53;93.71;101702.69;5047985;28;20238;-55
2021/12/23 01:01:18;;;;;;;20.90;14.00;;;;;;;-1.53;93.24;101694.94;5045016;28;20272;-54
2021/12/23 01:03:45;;;;;;;17.57;13.07;;;;;;;-1.53;93.32;101683.75;5045791;28;20688;-56
2021/12/23 01:06:12;;;;;;;22.03;14.70;;;;;;;-1.58;93.80;101673.19;5047360;28;20273;-54
2021/12/23 01:08:38;;;;;;;21.80;15.33;;;;;;;-1.52;93.67;101670.97;5045415;28;20284;-53
2021/12/23 01:11:04;;;;;;;20.63;14.37;;;;;;;-1.47;93.78;101669.59;5047248;28;20293;-53
2021/12/23 01:13:31;;;;;;;18.73;13.83;;;;;;;-1.53;93.54;101674.34;5046621;28;20227;-54
2021/12/23 01:16:02;;;;;;;18.93;14.97;;;;;;;-1.53;93.32;101674.34;5052219;28;20668;-53
2021/12/23 01:18:31;;;;;;;22.70;13.80;;;;;;;-1.27;94.04;101668.22;5042855;28;20250;-54
2021/12/23 01:21:15;;;;;;;17.97;13.33;;;;;;;-1.41;92.65;101678.47;5046866;28;20325;-52
2021/12/23 01:23:43;;;;;;;19.23;14.17;;;;;;;-1.62;93.05;101678.91;5045459;28;20236;-52
2021/12/23 01:26:11;;;;;;;20.10;14.07;;;;;;;-1.54;93.51;101676.84;5042816;28;20324;-54
2021/12/23 01:28:37;;;;;;;19.70;13.53;;;;;;;-1.60;92.29;101673.88;5048275;28;20239;-54
2021/12/23 01:31:05;;;;;;;18.07;12.60;;;;;;;-1.40;95.18;101675.09;5047528;28;20233;-55
2021/12/23 01:33:31;;;;;;;19.43;14.27;;;;;;;-1.56;93.25;101674.16;5049200;28;20254;-54
2021/12/23 01:35:58;;;;;;;19.30;14.40;;;;;;;-1.58;92.99;101670.63;5046062;28;20273;-54
2021/12/23 01:38:24;;;;;;;21.17;15.13;;;;;;;-1.48;94.19;101665.22;5044462;28;20867;-54
2021/12/23 01:40:51;;;;;;;20.40;13.90;;;;;;;-1.70;93.05;101659.53;5052907;28;20265;-54
2021/12/23 01:43:17;;;;;;;25.70;15.57;;;;;;;-1.67;92.54;101659.72;5046062;28;20320;-52
2021/12/23 01:45:46;;;;;;;18.43;15.77;;;;;;;-1.68;92.83;101660.53;5038330;28;20789;-54
2021/12/23 01:48:14;;;;;;;16.83;13.17;;;;;;;-1.75;93.36;101658.34;5040299;28;20246;-53
2021/12/23 01:50:40;;;;;;;24.03;15.67;;;;;;;-1.75;93.60;101656.66;5042773;28;20263;-51
2021/12/23 01:53:08;;;;;;;19.67;13.90;;;;;;;-1.76;93.50;101649.72;5043550;28;20372;-54
2021/12/23 01:55:36;;;;;;;19.60;14.73;;;;;;;-1.87;93.82;101649.84;5048038;28;20238;-53
2021/12/23 01:58:04;;;;;;;18.87;14.20;;;;;;;-1.81;93.89;101652.81;5052033;28;20254;-52
2021/12/23 02:00:33;;;;;;;16.53;12.90;;;;;;;-1.81;93.36;101653.69;5041181;28;20295;-54
2021/12/23 02:03:00;;;;;;;19.53;13.27;;;;;;;-1.69;94.33;101643.28;5054425;28;20311;-56
2021/12/23 02:05:28;;;;;;;16.77;13.00;;;;;;;-1.61;94.18;101641.22;5042456;28;20293;-54
2021/12/23 02:07:54;;;;;;;19.10;13.87;;;;;;;-1.71;93.13;101626.88;5053600;28;20276;-51
2021/12/23 02:10:22;;;;;;;17.47;13.53;;;;;;;-1.50;95.35;101623.03;5044890;28;20257;-52
2021/12/23 02:12:49;;;;;;;22.10;14.37;;;;;;;-1.36;94.28;101620.44;5053471;28;20239;-54
2021/12/23 02:15:17;;;;;;;19.33;13.70;;;;;;;-1.37;92.48;101616.97;5044864;28;20778;-55
2021/12/23 02:17:44;;;;;;;22.10;14.23;;;;;;;-1.41;92.13;101598.63;5052233;28;20246;-53
2021/12/23 02:20:13;;;;;;;18.17;13.43;;;;;;;-1.42;94.11;101599.44;5043192;28;20257;-54
2021/12/23 02:22:41;;;;;;;23.70;14.30;;;;;;;-1.42;93.42;101595.19;5041366;28;20778;-51
2021/12/23 02:25:08;;;;;;;21.73;14.47;;;;;;;-1.49;92.38;101593.91;5039422;28;20325;-55
2021/12/23 02:27:35;;;;;;;19.77;14.03;;;;;;;-1.51;90.88;101602.34;5047112;28;20254;-54
2021/12/23 02:30:01;;;;;;;19.83;15.97;;;;;;;-1.65;91.75;101591.22;5044665;28;20234;-53
2021/12/23 02:32:28;;;;;;;17.27;14.00;;;;;;;-1.77;92.09;101586.16;5039838;28;21000;-55
2021/12/23 02:34:54;;;;;;;17.40;13.03;;;;;;;-1.76;93.53;101582.78;5042194;28;20257;-53
2021/12/23 02:37:22;;;;;;;19.93;13.40;;;;;;;-1.74;92.49;101582.91;5045087;28;20238;-52
2021/12/23 02:39:48;;;;;;;19.67;13.93;;;;;;;-1.74;92.57;101565.78;5043803;28;20244;-54
2021/12/23 02:42:15;;;;;;;22.47;15.07;;;;;;;-1.77;92.57;101569.84;5049716;28;20654;-53
2021/12/23 02:44:41;;;;;;;20.13;15.37;;;;;;;-1.81;93.50;101557.59;5041818;28;20770;-51
2021/12/23 02:47:08;;;;;;;20.53;14.13;;;;;;;-1.78;92.24;101552.63;5041947;28;20839;-55
2021/12/23 02:49:34;;;;;;;20.03;15.63;;;;;;;-1.79;92.97;101551.75;5054895;28;20898;-54
2021/12/23 02:52:00;;;;;;;18.47;13.53;;;;;;;-1.43;95.74;101533.28;5043992;28;20240;-53
2021/12/23 02:54:28;;;;;;;23.03;14.47;;;;;;;-1.38;92.30;101524.16;5042504;28;20265;-52
2021/12/23 02:56:55;;;;;;;25.90;13.63;;;;;;;-1.61;91.60;101520.19;5050712;28;20379;-53
2021/12/23 02:59:21;;;;;;;25.60;14.93;;;;;;;-1.56;92.48;101513.63;5042685;28;20269;-52
2021/12/23 03:01:47;;;;;;;20.63;14.60;;;;;;;-1.51;92.95;101513.13;5038131;28;20237;-53
2021/12/23 03:04:14;;;;;;;19.77;14.83;;;;;;;-1.45;92.04;101513.47;5041746;28;20296;-52
2021/12/23 03:06:40;;;;;;;25.50;16.23;;;;;;;-1.71;91.69;101501.63;5039492;28;20237;-52
2021/12/23 03:09:06;;;;;;;19.70;14.60;;;;;;;-1.76;91.75;101502.13;5047046;28;20920;-52
2021/12/23 03:11:34;;;;;;;25.27;16.30;;;;;;;-1.62;93.26;101497.81;5045520;28;20257;-54
2021/12/23 03:14:01;;;;;;;17.43;13.50;;;;;;;-1.71;92.00;101495.59;5038238;28;20320;-52
2021/12/23 03:16:30;;;;;;;19.97;13.90;;;;;;;-1.80;92.28;101489.88;5045381;28;20257;-53
2021/12/23 03:18:57;;;;;;;24.87;15.90;;;;;;;-1.88;91.93;101485.94;5044627;28;20245;-53
2021/12/23 03:21:23;;;;;;;23.47;15.20;;;;;;;-2.04;92.48;101487.56;5048355;28;20238;-52
2021/12/23 03:23:51;;;;;;;22.50;15.93;;;;;;;-2.06;93.27;101478.00;5044424;28;20230;-54
2021/12/23 03:26:18;;;;;;;19.80;14.30;;;;;;;-2.14;93.83;101466.31;5041088;28;20287;-53
2021/12/23 03:28:45;;;;;;;23.07;16.00;;;;;;;-1.60;96.63;101455.03;5041660;28;20260;-53
2021/12/23 03:31:12;;;;;;;20.23;15.93;;;;;;;-1.47;94.64;101452.41;5039823;28;20234;-52
2021/12/23 03:33:38;;;;;;;19.77;15.13;;;;;;;-1.71;91.56;101446.66;5044450;28;20317;-55
2021/12/23 03:36:05;;;;;;;25.27;15.67;;;;;;;-1.85;92.70;101438.13;5043349;28;20235;-53
2021/12/23 03:38:32;;;;;;;26.93;15.43;;;;;;;-1.79;93.55;101438.50;5043155;28;20280;-55
2021/12/23 03:40:58;;;;;;;22.83;16.13;;;;;;;-1.65;93.04;101434.19;5042116;28;20245;-53
2021/12/23 03:43:25;;;;;;;23.73;14.83;;;;;;;-1.57;94.49;101427.78;5040543;28;20265;-59
2021/12/23 03:45:52;;;;;;;22.70;16.07;;;;;;;-1.64;92.46;101423.06;5040953;28;20231;-55
2021/12/23 03:48:19;;;;;;;21.60;14.00;;;;;;;-1.63;91.18;101419.69;5054224;28;20405;-53
2021/12/23 03:50:47;;;;;;;17.47;14.80;;;;;;;-1.73;91.46;101417.38;5046421;28;20226;-54
2021/12/23 03:53:14;;;;;;;22.43;14.50;;;;;;;-1.82;91.89;101420.28;5046683;28;20220;-53
2021/12/23 03:55:40;;;;;;;22.07;15.97;;;;;;;-1.86;92.04;101420.00;5047688;28;20288;-53
2021/12/23 03:58:07;;;;;;;20.37;16.17;;;;;;;-1.87;92.95;101408.81;5048336;28;20223;-53
2021/12/23 04:00:33;;;;;;;25.30;15.60;;;;;;;-1.85;92.83;101411.50;5043961;28;20262;-53
2021/12/23 04:03:01;;;;;;;20.53;15.57;;;;;;;-1.55;91.40;101396.97;5050024;28;20254;-54
2021/12/23 04:05:27;;;;;;;18.87;15.10;;;;;;;-1.13;94.99;101388.22;5053195;28;20245;-53
2021/12/23 04:07:54;;;;;;;18.67;14.87;;;;;;;-1.47;93.87;101380.28;5048587;28;20338;-53
2021/12/23 04:10:21;;;;;;;20.27;16.07;;;;;;;-1.48;93.68;101374.22;5044945;28;20416;-53
2021/12/23 04:12:48;;;;;;;20.83;16.77;;;;;;;-1.68;91.07;101379.94;5047221;28;20234;-54
2021/12/23 04:15:15;;;;;;;20.57;15.97;;;;;;;-1.52;91.72;101361.97;5045288;28;20278;-54
2021/12/23 04:17:43;;;;;;;20.37;14.90;;;;;;;-1.08;94.23;101352.44;5050844;28;20283;-54
2021/12/23 04:20:17;;;;;;;24.83;16.37;;;;;;;-1.56;90.32;101352.31;5051944;28;21123;-53
2021/12/23 04:22:44;;;;;;;23.37;16.87;;;;;;;-1.39;91.23;101358.44;5048044;28;20710;-52
2021/12/23 04:25:12;;;;;;;28.43;19.07;;;;;;;-1.81;91.19;101364.56;5042537;28;20731;-54
2021/12/23 04:27:39;;;;;;;25.10;16.97;;;;;;;-1.73;91.76;101365.88;5047796;28;20262;-54
2021/12/23 04:30:08;;;;;;;25.37;16.87;;;;;;;-1.86;91.29;101359.16;5042508;28;20244;-54
2021/12/23 04:32:34;;;;;;;24.13;17.37;;;;;;;-1.84;92.05;101364.38;5044383;28;20310;-53
2021/12/23 04:35:01;;;;;;;22.73;16.10;;;;;;;-1.89;92.00;101358.09;5053106;28;20266;-58
2021/12/23 04:37:28;;;;;;;21.97;15.70;;;;;;;-1.95;91.55;101353.44;5046234;28;20288;-53
2021/12/23 04:39:55;;;;;;;23.67;16.93;;;;;;;-1.70;93.84;101345.47;5051220;28;20362;-54
2021/12/23 04:42:21;;;;;;;20.07;16.77;;;;;;;-1.80;91.82;101348.31;5050940;28;20704;-55
2021/12/23 04:44:48;;;;;;;25.23;16.70;;;;;;;-1.74;92.58;101343.53;5044821;28;20265;-53
2021/12/23 04:47:14;;;;;;;24.03;17.20;;;;;;;-1.70;92.96;101325.75;5043424;28;20228;-53
2021/12/23 04:49:40;;;;;;;22.43;17.20;;;;;;;-1.46;94.54;101316.00;5055972;28;20237;-55
2021/12/23 04:52:07;;;;;;;22.70;16.77;;;;;;;-1.36;91.34;101313.94;5041172;28;20357;-52
2021/12/23 04:54:35;;;;;;;23.97;16.43;;;;;;;-1.14;92.49;101309.16;5053410;28;20231;-54
2021/12/23 04:57:01;;;;;;;21.13;15.77;;;;;;;-1.45;90.86;101309.16;5038993;28;20250;-54
2021/12/23 04:59:28;;;;;;;23.50;15.83;;;;;;;-1.42;90.45;101296.44;5054963;28;20264;-53
2021/12/23 05:01:54;;;;;;;22.50;16.83;;;;;;;-1.43;90.67;101296.38;5036292;28;20285;-54
2021/12/23 05:04:21;;;;;;;25.70;18.20;;;;;;;-1.65;90.33;101313.19;5047114;28;20257;-54
2021/12/23 05:06:47;;;;;;;22.57;17.63;;;;;;;-1.64;91.18;101304.66;5034159;28;20261;-55
2021/12/23 05:09:14;;;;;;;24.97;16.57;;;;;;;-1.80;91.08;101299.41;5040760;28;20320;-53
2021/12/23 05:11:42;;;;;;;23.43;16.67;;;;;;;-1.44;94.44;101277.44;5040824;28;20726;-53
2021/12/23 05:14:08;;;;;;;28.20;17.97;;;;;;;-1.40;91.34;101258.81;5046043;28;20234;-52
2021/12/23 05:16:34;;;;;;;26.30;16.77;;;;;;;-0.68;94.07;101254.94;5046067;28;20242;-54
2021/12/23 05:19:01;;;;;;;24.67;17.40;;;;;;;-1.14;88.85;101265.38;5049046;28;20347;-55
2021/12/23 05:21:27;;;;;;;24.67;18.33;;;;;;;-1.15;88.10;101261.03;5043675;28;20664;-53
2021/12/23 05:23:53;;;;;;;28.37;18.33;;;;;;;-1.31;89.45;101276.44;5036660;28;20671;-53
2021/12/23 05:26:20;;;;;;;28.23;16.57;;;;;;;-1.25;89.45;101280.25;5042075;28;20289;-53
2021/12/23 05:28:47;;;;;;;23.90;17.33;;;;;;;-1.42;89.39;101278.41;5045692;28;20315;-53
2021/12/23 05:31:14;;;;;;;26.10;17.33;;;;;;;-1.58;89.76;101274.13;5042470;28;20414;-55
2021/12/23 05:33:40;;;;;;;27.60;18.27;;;;;;;-1.76;91.59;101260.19;5051407;28;20298;-53
2021/12/23 05:36:07;;;;;;;26.33;17.60;;;;;;;-1.73;90.77;101252.63;5048813;28;20739;-53
2021/12/23 05:38:33;;;;;;;23.10;18.50;;;;;;;-1.66;91.53;101247.03;5037796;28;20292;-53
2021/12/23 05:40:59;;;;;;;22.20;17.10;;;;;;;-1.63;92.27;101243.75;5053997;28;20307;-54
2021/12/23 05:43:26;;;;;;;24.50;16.83;;;;;;;-1.27;94.71;101239.75;5049184;28;20288;-54
2021/12/23 05:45:53;;;;;;;26.63;17.83;;;;;;;-1.62;91.08;101238.66;5047805;28;20336;-54
2021/12/23 05:48:20;;;;;;;25.93;17.57;;;;;;;-1.42;91.28;101231.19;5038814;28;20242;-54
2021/12/23 05:50:46;;;;;;;24.80;17.23;;;;;;;-1.47;90.68;101241.25;5042297;28;20904;-52
2021/12/23 05:53:12;;;;;;;28.10;18.37;;;;;;;-1.39;91.65;101246.81;5040337;28;20226;-54
2021/12/23 05:55:40;;;;;;;25.63;18.07;;;;;;;-1.38;92.33;101225.41;5049727;28;20667;-53
2021/12/23 05:58:06;;;;;;;26.60;17.47;;;;;;;-1.48;90.57;101235.19;5047158;28;20250;-54
2021/12/23 06:00:34;;;;;;;24.53;16.97;;;;;;;-1.39;91.96;101231.34;5048189;28;20230;-53
2021/12/23 06:03:03;;;;;;;25.43;17.13;;;;;;;-1.30;90.59;101229.25;5037351;28;20296;-53
2021/12/23 06:05:30;;;;;;;25.30;18.53;;;;;;;-1.56;90.54;101215.84;5040357;28;20243;-56
2021/12/23 06:07:56;;;;;;;24.70;17.87;;;;;;;-1.45;90.41;101225.06;5054186;28;22309;-53
2021/12/23 06:10:23;;;;;;;31.87;19.87;;;;;;;-1.68;91.01;101207.47;5041831;28;20769;-53
2021/12/23 06:12:50;;;;;;;27.93;18.60;;;;;;;-1.72;91.20;101205.50;5037036;28;20253;-54
2021/12/23 06:15:16;;;;;;;25.20;16.93;;;;;;;-1.61;92.41;101190.69;5041559;28;20271;-54
2021/12/23 06:17:43;;;;;;;29.57;18.20;;;;;;;-1.64;91.41;101188.81;5042374;28;20263;-54
2021/12/23 06:20:12;;;;;;;26.27;17.93;;;;;;;-1.55;92.15;101186.72;5043158;28;20280;-52
2021/12/23 06:22:38;;;;;;;27.00;19.50;;;;;;;-1.49;91.60;101186.19;5031607;28;20247;-52
2021/12/23 06:25:08;;;;;;;27.17;17.87;;;;;;;-1.67;91.09;101180.91;5041494;28;20591;-53
2021/12/23 06:27:35;;;;;;;24.87;18.80;;;;;;;-1.43;92.31;101183.94;5041564;28;20235;-53
2021/12/23 06:30:16;;;;;;;28.20;18.47;;;;;;;-1.43;90.10;101185.66;5042685;28;20248;-53
2021/12/23 06:32:42;;;;;;;28.00;19.63;;;;;;;-1.43;90.59;101185.66;5056728;28;20242;-54
2021/12/23 06:35:11;;;;;;;24.90;17.73;;;;;;;-1.43;90.72;101180.50;5075629;28;20241;-57
2021/12/23 06:37:37;;;;;;;27.30;17.67;;;;;;;-1.46;90.02;101171.78;5063673;28;20241;-53
2021/12/23 06:40:04;;;;;;;28.93;18.93;;;;;;;-1.12;90.85;101167.53;5068714;28;20264;-58
2021/12/23 06:42:31;;;;;;;25.97;18.47;;;;;;;-1.16;89.91;101174.22;5070114;28;20241;-57
2021/12/23 06:44:57;;;;;;;23.23;17.13;;;;;;;-1.16;88.63;101179.38;5065343;28;20295;-54
2021/12/23 06:47:24;;;;;;;28.53;18.90;;;;;;;-1.26;89.51;101164.25;5054188;28;20315;-53
2021/12/23 06:49:50;;;;;;;25.87;18.03;;;;;;;-1.13;88.10;101173.50;5051035;28;20260;-54
2021/12/23 06:52:18;;;;;;;25.50;17.03;;;;;;;-0.99;89.68;101165.69;5038855;28;20757;-54
2021/12/23 06:54:49;;;;;;;27.10;17.93;;;;;;;-1.15;87.74;101173.44;5040335;28;20244;-53
2021/12/23 06:57:15;;;;;;;24.80;18.00;;;;;;;-1.28;89.35;101155.56;5076085;22;20362;-55
2021/12/23 06:59:42;;;;;;;22.57;17.20;;;;;;;-1.22;88.88;101150.72;5068228;28;20233;-58
2021/12/23 07:02:08;;;;;;;28.43;18.37;;;;;;;-1.03;89.09;101138.00;5062290;28;20266;-57
2021/12/23 07:04:36;;;;;;;25.77;18.30;;;;;;;-0.83;88.27;101125.25;5059985;28;20265;-54
2021/12/23 07:07:09;;;;;;;26.33;17.23;;;;;;;-0.93;88.23;101120.44;5058406;28;20901;-59
2021/12/23 07:09:37;;;;;;;25.23;18.43;;;;;;;-0.70;89.01;101100.97;5062838;28;20271;-56
2021/12/23 07:12:04;;;;;;;26.40;16.83;;;;;;;-0.31;88.35;101117.56;5068859;28;20305;-54
2021/12/23 07:14:30;;;;;;;23.97;16.87;;;;;;;-0.30;89.38;101129.63;5068090;28;20248;-56
2021/12/23 07:16:56;;;;;;;27.33;16.97;;;;;;;-0.63;85.08;101152.03;5059841;28;20312;-56
2021/12/23 07:19:23;;;;;;;27.37;17.80;;;;;;;-0.77;85.89;101135.91;5066968;28;20265;-57
2021/12/23 07:21:49;;;;;;;22.60;15.40;;;;;;;-1.00;87.05;101122.69;5072287;28;20720;-58
2021/12/23 07:24:15;;;;;;;22.37;16.43;;;;;;;-1.01;87.00;101135.50;5070127;28;20296;-57
2021/12/23 07:26:44;;;;;;;24.10;17.63;;;;;;;-1.07;87.30;101125.75;5059491;28;20235;-57
2021/12/23 07:29:11;;;;;;;24.23;17.47;;;;;;;-1.23;87.61;101130.91;5070074;28;20868;-58
2021/12/23 07:31:37;;;;;;;21.93;17.00;;;;;;;-1.08;88.06;101118.84;5060552;28;21612;-56
2021/12/23 07:34:04;;;;;;;26.83;17.13;;;;;;;-0.98;89.08;101100.47;5066306;28;20322;-58
2021/12/23 07:36:30;;;;;;;26.33;17.17;;;;;;;-1.02;87.27;101120.84;5065358;28;20237;-57
2021/12/23 07:38:57;;;;;;;23.60;16.80;;;;;;;-0.85;89.20;101098.50;5060173;28;20960;-56
2021/12/23 07:41:25;;;;;;;21.77;15.77;;;;;;;-0.46;91.81;101103.88;5064191;28;20246;-54
2021/12/23 07:43:58;;;;;;;27.27;15.87;;;;;;;-0.78;86.12;101110.91;5065912;28;20298;-57
2021/12/23 07:46:25;;;;;;;24.17;16.90;;;;;;;-0.98;86.27;101112.47;5063134;28;20242;-55
2021/12/23 07:48:51;;;;;;;22.97;15.97;;;;;;;-0.92;88.07;101117.94;5063365;28;20229;-57
2021/12/23 07:51:18;;;;;;;22.60;16.80;;;;;;;-1.08;87.42;101103.38;5072329;28;20670;-57
2021/12/23 07:53:45;;;;;;;26.33;17.30;;;;;;;-1.11;87.51;101103.22;5062269;28;20328;-56
2021/12/23 07:56:11;;;;;;;21.43;15.77;;;;;;;-1.10;88.07;101107.56;5066451;28;20295;-55
2021/12/23 07:58:37;;;;;;;24.80;15.43;;;;;;;-0.89;86.81;101105.19;5067706;28;20278;-56
2021/12/23 08:01:05;;;;;;;27.10;17.33;;;;;;;-0.98;86.39;101100.47;5061294;28;20272;-55
2021/12/23 08:03:32;;;;;;;21.23;16.10;;;;;;;-0.99;86.75;101098.69;5065550;28;20299;-55
2021/12/23 08:05:58;;;;;;;22.67;16.60;;;;;;;-1.14;87.42;101085.03;5067094;28;20314;-55
2021/12/23 08:08:24;;;;;;;18.93;14.93;;;;;;;-1.06;88.18;101076.00;5058794;28;20357;-55
2021/12/23 08:10:51;;;;;;;24.63;17.00;;;;;;;-0.79;89.27;101062.75;5058521;28;20230;-57
2021/12/23 08:13:17;;;;;;;23.37;17.53;;;;;;;-0.92;86.43;101073.25;5064779;28;20646;-55
2021/12/23 08:15:44;;;;;;;22.90;16.63;;;;;;;-0.68;88.90;101059.00;5069189;28;20253;-57
2021/12/23 08:18:11;;;;;;;22.17;16.23;;;;;;;-0.62;87.65;101059.31;5060727;28;20333;-55
2021/12/23 08:20:38;;;;;;;24.27;16.47;;;;;;;-0.42;86.44;101043.91;5056026;28;20264;-55
2021/12/23 08:23:04;;;;;;;20.47;15.87;;;;;;;-0.56;85.94;101044.16;5063301;28;20258;-55
2021/12/23 08:25:31;;;;;;;22.37;14.93;;;;;;;-0.51;86.33;101052.09;5065699;28;20285;-56
2021/12/23 08:27:57;;;;;;;23.20;16.23;;;;;;;-0.77;84.82;101043.09;5065167;28;20261;-57
2021/12/23 08:30:24;;;;;;;21.30;15.00;;;;;;;-0.73;87.45;101035.59;5072816;28;20322;-54
2021/12/23 08:32:51;;;;;;;27.70;16.63;;;;;;;-0.67;86.83;101034.97;5055806;28;20241;-58
2021/12/23 08:35:20;;;;;;;24.73;15.60;;;;;;;-0.83;85.50;101028.19;5065546;28;20746;-57
2021/12/23 08:37:48;;;;;;;22.20;14.87;;;;;;;-0.92;86.03;101026.84;5063104;28;20272;-57
2021/12/23 08:40:16;;;;;;;24.53;15.73;;;;;;;-0.82;86.37;101023.91;5062755;28;20772;-57
2021/12/23 08:42:43;;;;;;;21.83;14.30;;;;;;;-0.81;86.64;101016.28;5065617;28;20237;-56
2021/12/23 08:45:10;;;;;;;20.87;15.87;;;;;;;-0.83;86.16;101011.84;5066152;28;20315;-56
2021/12/23 08:47:37;;;;;;;19.93;14.83;;;;;;;-0.73;87.17;101008.91;5063266;28;20303;-56
2021/12/23 08:50:05;;;;;;;21.37;16.60;;;;;;;-0.61;86.24;100999.19;5064740;28;20251;-54
2021/12/23 08:52:33;;;;;;;20.00;15.70;;;;;;;-0.35;85.95;100996.94;5068464;28;20225;-56
2021/12/23 08:55:00;;;;;;;23.60;15.47;;;;;;;-0.60;84.70;101000.94;5059882;28;20287;-57
2021/12/23 08:57:26;;;;;;;19.77;15.43;;;;;;;-0.63;84.61;100995.66;5072066;28;20253;-57
2021/12/23 08:59:53;;;;;;;27.90;16.83;;;;;;;-0.73;85.66;100985.72;5059890;28;20730;-55
2021/12/23 09:02:19;;;;;;;21.20;15.53;;;;;;;-0.38;85.56;100992.56;5070810;28;20231;-58
2021/12/23 09:04:46;;;;;;;21.60;14.40;;;;;;;-0.41;86.09;100982.09;5058422;28;20287;-55
2021/12/23 09:07:12;;;;;;;27.17;16.23;;;;;;;-0.54;84.49;100985.78;5059501;28;20274;-57
2021/12/23 09:09:40;;;;;;;20.50;14.90;;;;;;;-0.62;83.97;100981.06;5058889;28;20252;-57
2021/12/23 09:12:08;;;;;;;18.63;14.87;;;;;;;-0.89;84.93;100972.88;5063337;28;20246;-54
2021/12/23 09:14:35;;;;;;;24.07;15.97;;;;;;;-0.80;85.57;100957.88;5072494;28;20226;-57
2021/12/23 09:17:02;;;;;;;20.43;15.10;;;;;;;-0.79;86.63;100962.22;5072268;28;20235;-57
2021/12/23 09:19:29;;;;;;;20.40;15.30;;;;;;;-0.35;88.01;100958.25;5063253;28;20954;-55
2021/12/23 09:21:56;;;;;;;21.27;14.83;;;;;;;-0.23;84.20;100948.53;5065655;28;20257;-57
2021/12/23 09:24:23;;;;;;;19.47;13.77;;;;;;;-0.21;83.65;100938.25;5063718;28;20320;-56
2021/12/23 09:26:56;;;;;;;21.57;14.87;;;;;;;-0.17;82.82;100938.50;5068065;28;20233;-55
2021/12/23 09:34:47;;;;;;;23.67;14.90;;;;;;;-0.37;84.01;100922.09;5060844;28;20237;-56
2021/12/23 09:37:14;;;;;;;20.53;15.33;;;;;;;-0.50;83.28;100917.19;5066721;28;20231;-54
2021/12/23 09:39:52;;;;;;;23.57;15.67;;;;;;;-0.59;84.17;100916.75;5065257;28;20780;-56
2021/12/23 09:42:24;;;;;;;19.77;15.70;;;;;;;-0.56;84.01;100910.06;5061161;28;20230;-54
2021/12/23 09:44:51;;;;;;;23.00;15.03;;;;;;;-0.51;83.99;100892.22;5049966;28;20249;-56
2021/12/23 09:47:18;;;;;;;23.07;15.47;;;;;;;-0.27;85.52;100892.44;5061157;28;20233;-53
2021/12/23 09:49:45;;;;;;;20.20;14.63;;;;;;;-0.14;83.31;100879.28;5064432;28;20311;-55
2021/12/23 09:52:12;;;;;;;18.20;14.20;;;;;;;0.20;83.82;100876.44;5066600;28;20645;-55
2021/12/23 09:54:40;;;;;;;20.20;14.90;;;;;;;-0.21;81.89;100878.91;5061619;28;20307;-53
2021/12/23 09:57:06;;;;;;;21.20;15.83;;;;;;;-0.14;81.96;100884.44;5063873;28;20264;-52
2021/12/23 09:59:35;;;;;;;21.23;14.20;;;;;;;-0.55;82.87;100872.25;5065300;28;20257;-55
2021/12/23 10:02:01;;;;;;;24.37;15.63;;;;;;;-0.49;83.58;100865.69;5062827;28;20311;-56
2021/12/23 10:04:27;;;;;;;19.67;13.47;;;;;;;-0.47;85.77;100857.13;5063614;28;20288;-57
2021/12/23 10:06:57;;;;;;;21.50;13.93;;;;;;;-0.49;85.17;100850.22;5063118;28;20259;-54
2021/12/23 10:09:39;;;;;;;21.00;14.00;;;;;;;-0.40;85.11;100835.94;5061286;28;20255;-53
2021/12/23 10:12:55;;;;;;;22.03;15.67;;;;;;;-0.46;83.24;100827.94;5065613;28;20227;-53
2021/12/23 10:31:43;;;;;;;19.87;13.27;;;;;;;-0.22;82.89;100756.78;5062223;28;20782;-55
2021/12/23 10:37:16;;;;;;;22.53;15.10;;;;;;;-0.38;83.79;100738.91;5055434;28;20249;-55
2021/12/23 10:39:44;;;;;;;20.13;14.67;;;;;;;-0.30;85.31;100732.38;5063231;28;20237;-54
2021/12/23 10:42:11;;;;;;;17.77;12.93;;;;;;;0.04;85.21;100726.06;5061959;28;20231;-56
2021/12/23 10:44:37;;;;;;;17.17;12.50;;;;;;;0.08;82.11;100715.03;5069612;28;20256;-53
2021/12/23 10:47:07;;;;;;;20.20;13.97;;;;;;;-0.13;82.76;100709.88;5062694;28;20908;-53
2021/12/23 10:49:40;;;;;;;19.80;13.60;;;;;;;-0.14;83.09;100688.34;5063782;28;20228;-54
2021/12/23 10:52:10;;;;;;;15.57;12.53;;;;;;;0.23;83.56;100677.78;5058823;28;20680;-54
2021/12/23 11:00:19;;;;;;;18.47;12.80;;;;;;;0.11;81.44;100676.44;5067244;28;20232;-54
2021/12/23 11:03:17;;;;;;;20.37;13.97;;;;;;;0.08;82.59;100660.81;5064557;28;20242;-54
2021/12/23 11:05:49;;;;;;;21.53;13.33;;;;;;;0.36;80.80;100658.50;5018519;28;20236;-54
2021/12/23 11:08:24;;;;;;;19.83;14.77;;;;;;;0.21;82.08;100652.72;5071072;28;20742;-54
2021/12/23 11:28:01;;;;;;;14.63;11.63;;;;;;;0.13;81.43;100624.03;5070875;28;20253;-54
2021/12/23 11:31:43;;;;;;;16.07;12.50;;;;;;;0.22;81.16;100626.09;5061421;28;20223;-55
2021/12/23 11:36:57;;;;;;;19.50;13.63;;;;;;;0.15;81.14;100650.78;5056001;28;20326;-55
2021/12/23 11:39:32;;;;;;;21.47;13.37;;;;;;;0.07;81.78;100682.28;5063838;28;20749;-54
2021/12/23 11:42:03;;;;;;;21.83;12.37;;;;;;;0.05;82.07;100643.50;5063440;28;20252;-54
2021/12/23 11:44:31;;;;;;;17.47;12.70;;;;;;;0.16;82.84;100654.25;5066006;28;20225;-55
2021/12/23 11:47:01;;;;;;;16.77;12.23;;;;;;;0.05;82.52;100645.22;5065185;28;20241;-54
2021/12/23 11:49:27;;;;;;;19.20;12.87;;;;;;;0.05;82.52;100640.06;5071596;28;20239;-53
2021/12/23 11:51:55;;;;;;;23.07;14.27;;;;;;;0.04;83.14;100657.25;5055989;28;20257;-54
2021/12/23 11:54:30;;;;;;;17.77;13.13;;;;;;;0.02;83.91;100625.31;5067540;28;20329;-54
2021/12/23 11:57:03;;;;;;;16.97;11.80;;;;;;;0.16;83.11;100631.03;5069173;28;20250;-54
2021/12/23 11:59:30;;;;;;;16.90;12.10;;;;;;;0.16;83.25;100625.84;5071429;28;20655;-54
2021/12/23 12:01:57;;;;;;;30.50;19.30;;;;;;;0.33;82.37;100599.00;5070998;28;20243;-53
2021/12/23 12:04:25;;;;;;;16.33;12.57;;;;;;;0.43;81.14;100598.50;5070236;28;20314;-52
2021/12/23 12:06:53;;;;;;;19.83;12.43;;;;;;;0.45;81.94;100603.72;5069291;28;20254;-57
2021/12/23 12:09:23;;;;;;;18.07;11.90;;;;;;;0.63;80.73;100599.25;5069069;28;20253;-57